Aérodrome :
LOGIN :

S'inscrire | Disclaimer

   EN    FR    IT 

 










Légende :    VFR   VFR Marginal   IFR   IFR Intensif   IFR Très Intensif
Visi : 
Plafond : 
>= 8 km
>= 3000ft
5 à 8 km
1000 à 3000 ft
1500m à 5 km
500 à 1000 ft
800 à 1500m
200 à 500 ft
< 800m
< 200 ft
Symboles :   Orages  Brouillard  Fortes neiges  Fortes précipitations  Vent > 20 kt
SIGMETs :   Divers  Orages  Givrage  Turbulence  Onde Orograph.  Cendres Volcan.







- Altitude de l'aérodrome : 1197 ft
- Code IATA : SPM


ETAD - Spangdahlem Ab

DERNIER METAR :
  • 170856Z AUTO 08003KT 9000 M CLR 14/10 A3011 RMK AO2 DZB33E43 SLP184 P0000 60000 T01410097 50004 $

METARs EXPIRÉS :
  • 170756Z AUTO 00000KT 9999 CLR 11/09 A3010 RMK AO2 SLP181 T01100094 $
  • 170656Z AUTO 00000KT 9999 CLR 09/08 A3011 RMK AO2 SLP186 T00920080 $

TAF TAF ETAD
Valide du 17 à 04h jusqu'au 18 à 10h UTC


170407Z 1704/1810 VRB06KT 9999 FEW150 QNH3006INS
BECMG 1723/1724 VRB06KT 9000 BR SKC QNH3012INS
BECMG 1808/1809 04009KT 9999 NSW SCT020 QNH3018INS TX22/1714Z TN07/1804Z
Pas de NOTAMs connus pour ce terrain.



MET'MAP, la Météo Aéronautique d'un coup d'oeil ! - Copyright ORBIFLY Décembre 2007 - Disclaimer

ORBIFLY MET'MAP TEAM :

Programmation & Développement : Alexandra Zaïnal
Conception & Développement : Baudouin d'Aumeries
Co-Programmation & Développement : Marc-Olivier Méhu
Soutien technique & logistique : Manuel Goepfert

Contact : metmap@orbifly.com




SOURCES & CREDITS :

   NOAA